Time;durP1;ratioP1;P1;durP2;ratioP2;P2;SDS_P1;SDS_P2;PMS_P1;PMS_P2;Temp;Humidity;BMP_temperature;BMP_pressure;BME280_temperature;BME280_humidity;BME280_pressure;Samples;Min_cycle;Max_cycle;Signal;HPM_P1;HPM_P2
2023/12/04 00:00:29;;;;;;;12.40;6.17;;;;;1.80;100641.00;;;;9918864;29;20229;-84
2023/12/04 00:05:31;;;;;;;11.27;6.47;;;;;1.80;100616.00;;;;9963099;29;20237;-83
2023/12/04 00:10:34;;;;;;;11.07;6.20;;;;;1.70;100621.00;;;;9963827;29;20327;-84
2023/12/04 00:15:36;;;;;;;9.53;5.10;;;;;1.70;100610.00;;;;9966365;29;20229;-85
2023/12/04 00:20:37;;;;;;;9.87;6.20;;;;;1.70;100614.00;;;;9987653;29;20241;-84
2023/12/04 00:25:38;;;;;;;9.70;6.20;;;;;1.70;100602.00;;;;9986915;29;20365;-83
2023/12/04 00:30:40;;;;;;;10.67;6.77;;;;;1.60;100589.00;;;;9979906;29;20329;-85
2023/12/04 00:35:41;;;;;;;11.23;6.27;;;;;1.60;100580.00;;;;9999639;29;20240;-84
2023/12/04 00:40:44;;;;;;;10.77;6.20;;;;;1.50;100568.00;;;;10008190;29;20263;-82
2023/12/04 00:45:45;;;;;;;12.40;7.03;;;;;1.50;100556.00;;;;9991065;29;20369;-76
2023/12/04 00:50:46;;;;;;;10.20;6.00;;;;;1.40;100563.00;;;;9995641;29;20290;-77
2023/12/04 00:55:47;;;;;;;10.57;5.63;;;;;1.40;100546.00;;;;9989949;29;20243;-77
2023/12/04 01:00:51;;;;;;;10.17;5.87;;;;;1.40;100545.00;;;;9988333;29;20241;-78
2023/12/04 01:05:52;;;;;;;11.10;5.90;;;;;1.40;100542.00;;;;9986844;29;20878;-77
2023/12/04 01:10:54;;;;;;;7.77;4.73;;;;;1.40;100542.00;;;;9993174;29;20304;-77
2023/12/04 01:15:55;;;;;;;8.23;4.80;;;;;1.40;100527.00;;;;10012674;29;20273;-76
2023/12/04 01:20:57;;;;;;;11.90;5.83;;;;;1.50;100536.00;;;;10001867;29;20286;-78
2023/12/04 01:25:58;;;;;;;9.63;5.83;;;;;1.50;100528.00;;;;10010731;29;20342;-77
2023/12/04 01:30:59;;;;;;;8.17;5.37;;;;;1.50;100524.00;;;;10013350;29;20259;-78
2023/12/04 01:36:02;;;;;;;12.40;7.40;;;;;1.60;100521.00;;;;10015891;29;20933;-78
2023/12/04 01:41:04;;;;;;;11.93;5.63;;;;;1.60;100519.00;;;;9992823;29;20229;-77
2023/12/04 01:46:07;;;;;;;11.10;5.90;;;;;1.60;100508.00;;;;10016107;29;20286;-78
2023/12/04 01:51:10;;;;;;;8.43;5.47;;;;;1.70;100496.00;;;;10010802;29;20233;-79
2023/12/04 01:56:13;;;;;;;7.80;4.90;;;;;1.70;100503.00;;;;9996134;29;20229;-79
2023/12/04 02:01:14;;;;;;;8.43;5.40;;;;;1.70;100496.00;;;;9996697;29;20236;-81
2023/12/04 02:06:16;;;;;;;8.07;5.53;;;;;1.80;100478.00;;;;10011466;29;20625;-80
2023/12/04 02:11:17;;;;;;;10.90;6.37;;;;;1.80;100476.00;;;;9992290;29;20354;-80
2023/12/04 02:16:24;;;;;;;7.87;4.67;;;;;1.70;100468.00;;;;9995703;29;20217;-80
2023/12/04 02:21:25;;;;;;;8.57;6.10;;;;;1.80;100464.00;;;;9996132;29;20233;-79
2023/12/04 02:26:37;;;;;;;6.90;4.73;;;;;1.80;100462.00;;;;9981733;29;20726;-80
2023/12/04 02:31:40;;;;;;;8.60;5.40;;;;;1.80;100462.00;;;;9983128;29;20234;-80
2023/12/04 02:36:42;;;;;;;8.17;4.93;;;;;1.70;100451.00;;;;9982257;29;20699;-79
2023/12/04 02:41:43;;;;;;;7.03;4.47;;;;;1.80;100438.00;;;;9978772;29;20758;-80
2023/12/04 02:46:45;;;;;;;7.97;4.50;;;;;1.80;100426.00;;;;9972407;29;20361;-80
2023/12/04 02:51:46;;;;;;;10.60;5.27;;;;;1.90;100426.00;;;;9998980;29;20304;-81
2023/12/04 02:56:47;;;;;;;7.57;4.73;;;;;1.80;100427.00;;;;9997264;29;20240;-79
2023/12/04 03:01:48;;;;;;;8.50;5.57;;;;;1.80;100407.00;;;;10012816;29;20232;-79
2023/12/04 03:06:49;;;;;;;7.10;4.63;;;;;1.90;100397.00;;;;9999909;29;20233;-79
2023/12/04 03:11:51;;;;;;;8.10;5.43;;;;;1.90;100385.00;;;;9994656;29;20676;-78
2023/12/04 03:16:52;;;;;;;9.90;5.60;;;;;1.90;100379.00;;;;10009187;29;20751;-79
2023/12/04 03:21:53;;;;;;;7.70;4.90;;;;;1.90;100373.00;;;;9994593;29;20316;-78
2023/12/04 03:26:54;;;;;;;10.00;5.30;;;;;1.90;100366.00;;;;10006176;29;20229;-79
2023/12/04 03:31:55;;;;;;;8.53;4.83;;;;;1.90;100349.00;;;;9990060;29;20312;-80
2023/12/04 03:36:56;;;;;;;7.33;4.57;;;;;1.90;100337.00;;;;9991524;29;20640;-78
2023/12/04 03:41:58;;;;;;;9.03;4.33;;;;;1.90;100330.00;;;;9990449;29;20233;-78
2023/12/04 03:46:59;;;;;;;8.77;4.57;;;;;1.90;100321.00;;;;9992568;29;20253;-81
2023/12/04 03:52:01;;;;;;;7.43;4.57;;;;;2.00;100310.00;;;;10006725;29;20335;-78
2023/12/04 03:57:02;;;;;;;7.73;4.60;;;;;2.00;100287.00;;;;9992577;29;20237;-78
2023/12/04 04:02:03;;;;;;;8.67;4.60;;;;;2.00;100288.00;;;;9995080;29;20304;-77
2023/12/04 04:07:05;;;;;;;7.40;4.47;;;;;2.00;100273.00;;;;9995337;29;20888;-77
2023/12/04 04:12:06;;;;;;;8.97;5.17;;;;;2.00;100261.00;;;;9992468;29;20720;-77
2023/12/04 04:17:07;;;;;;;7.40;4.43;;;;;2.10;100268.00;;;;10009787;29;20355;-79
2023/12/04 04:22:09;;;;;;;7.47;4.77;;;;;2.00;100259.00;;;;10004796;29;20261;-78
2023/12/04 04:27:10;;;;;;;7.57;4.43;;;;;2.10;100274.00;;;;9991021;29;20229;-78
2023/12/04 04:32:11;;;;;;;8.50;4.43;;;;;2.00;100267.00;;;;10004751;29;21115;-77
2023/12/04 04:37:15;;;;;;;7.50;4.47;;;;;2.00;100267.00;;;;10004321;29;20327;-80
2023/12/04 04:42:16;;;;;;;6.27;4.27;;;;;2.00;100250.00;;;;10009737;29;20229;-79
2023/12/04 04:47:18;;;;;;;5.13;3.90;;;;;2.10;100247.00;;;;10007046;29;20642;-78
2023/12/04 04:52:19;;;;;;;7.50;4.20;;;;;2.10;100247.00;;;;10011731;29;20230;-76
2023/12/04 04:57:20;;;;;;;8.43;5.07;;;;;2.10;100246.00;;;;10001276;29;20238;-79
2023/12/04 05:02:21;;;;;;;6.30;3.77;;;;;2.10;100235.00;;;;10008835;29;20245;-79
2023/12/04 05:07:22;;;;;;;5.97;3.70;;;;;2.10;100242.00;;;;10010802;29;20257;-80
2023/12/04 05:12:23;;;;;;;6.70;3.90;;;;;2.10;100240.00;;;;9997974;29;20220;-77
2023/12/04 05:17:25;;;;;;;6.50;3.80;;;;;2.10;100223.00;;;;9992714;29;20229;-79
2023/12/04 05:22:26;;;;;;;6.93;4.13;;;;;2.10;100220.00;;;;9994272;29;20228;-79
2023/12/04 05:27:27;;;;;;;5.40;3.60;;;;;2.10;100221.00;;;;9994144;29;20253;-84
2023/12/04 05:32:28;;;;;;;7.40;4.50;;;;;2.10;100222.00;;;;9984085;29;21153;-84
2023/12/04 05:37:30;;;;;;;7.30;4.00;;;;;2.10;100225.00;;;;9999796;29;20272;-84
2023/12/04 05:42:31;;;;;;;6.10;3.80;;;;;2.20;100220.00;;;;10017027;29;20241;-84
2023/12/04 05:47:32;;;;;;;7.57;4.00;;;;;2.20;100196.00;;;;10011218;29;20255;-84
2023/12/04 05:52:33;;;;;;;5.00;3.57;;;;;2.30;100179.00;;;;10014102;29;20237;-85
2023/12/04 05:57:35;;;;;;;5.73;3.90;;;;;2.30;100186.00;;;;9983280;29;20244;-84
2023/12/04 06:02:36;;;;;;;5.57;3.73;;;;;2.30;100181.00;;;;9997270;29;20229;-85
2023/12/04 06:07:38;;;;;;;5.73;3.97;;;;;2.30;100176.00;;;;9998480;29;20294;-86
2023/12/04 06:12:39;;;;;;;5.00;3.40;;;;;2.30;100160.00;;;;10000085;29;20304;-85
2023/12/04 06:17:40;;;;;;;4.33;3.13;;;;;2.30;100155.00;;;;9978101;29;20234;-84
2023/12/04 06:22:42;;;;;;;5.70;3.80;;;;;2.30;100141.00;;;;9996890;29;20736;-84
2023/12/04 06:27:43;;;;;;;6.83;3.80;;;;;2.30;100147.00;;;;10000614;29;20244;-86
2023/12/04 06:32:45;;;;;;;4.23;3.37;;;;;2.40;100161.00;;;;9986034;29;20932;-85
2023/12/04 06:37:48;;;;;;;5.07;3.40;;;;;2.40;100167.00;;;;10000842;29;20237;-78
2023/12/04 06:42:50;;;;;;;7.67;4.13;;;;;2.40;100168.00;;;;10008092;29;20230;-78
2023/12/04 06:47:53;;;;;;;4.67;3.60;;;;;2.40;100149.00;;;;9998077;29;20237;-79
2023/12/04 06:52:54;;;;;;;5.87;3.70;;;;;2.40;100158.00;;;;10011002;29;21093;-79
2023/12/04 06:57:56;;;;;;;9.50;4.00;;;;;2.50;100147.00;;;;9999873;29;20886;-80
2023/12/04 07:03:00;;;;;;;4.37;3.07;;;;;2.50;100162.00;;;;9999620;29;20264;-79
2023/12/04 07:08:02;;;;;;;5.63;3.97;;;;;2.50;100131.00;;;;9994322;29;20320;-80
2023/12/04 07:13:03;;;;;;;6.03;3.93;;;;;2.60;100131.00;;;;9998071;29;20229;-79
2023/12/04 07:18:05;;;;;;;8.43;4.37;;;;;2.60;100144.00;;;;10011696;29;20229;-80
2023/12/04 07:23:06;;;;;;;7.93;3.97;;;;;2.50;100132.00;;;;10009855;29;20237;-80
2023/12/04 07:28:07;;;;;;;6.10;4.23;;;;;2.50;100125.00;;;;10008346;29;20972;-79
2023/12/04 07:33:09;;;;;;;7.37;4.77;;;;;2.50;100109.00;;;;10009955;29;20834;-79
2023/12/04 07:38:11;;;;;;;6.17;4.73;;;;;2.50;100122.00;;;;9991516;29;20233;-79
2023/12/04 07:43:14;;;;;;;8.73;5.47;;;;;2.50;100126.00;;;;10008970;29;20320;-79
2023/12/04 07:48:16;;;;;;;8.27;4.80;;;;;2.60;100104.00;;;;10013114;29;20232;-86
2023/12/04 07:53:18;;;;;;;7.93;4.43;;;;;2.60;100109.00;;;;9986525;29;20241;-85
2023/12/04 07:58:19;;;;;;;4.97;3.93;;;;;2.60;100118.00;;;;10010707;29;20597;-85
2023/12/04 08:03:21;;;;;;;6.50;4.70;;;;;2.60;100108.00;;;;10003076;29;20279;-83
2023/12/04 08:08:22;;;;;;;7.17;4.60;;;;;2.60;100100.00;;;;10015914;29;20236;-87
2023/12/04 08:13:23;;;;;;;9.53;5.30;;;;;2.70;100092.00;;;;10002372;29;20229;-83
2023/12/04 08:18:24;;;;;;;6.53;4.90;;;;;2.70;100079.00;;;;10003949;29;20229;-82
2023/12/04 08:23:25;;;;;;;6.77;4.40;;;;;2.80;100065.00;;;;10002740;29;20285;-83
2023/12/04 08:28:27;;;;;;;9.70;5.33;;;;;2.80;100074.00;;;;10014840;29;20225;-84
2023/12/04 08:33:28;;;;;;;7.47;5.13;;;;;2.90;100067.00;;;;10005808;29;20260;-84
2023/12/04 08:38:29;;;;;;;8.33;4.90;;;;;2.90;100054.00;;;;10002466;29;20320;-83
2023/12/04 08:43:31;;;;;;;8.80;4.80;;;;;3.00;100058.00;;;;9989282;29;20229;-83
2023/12/04 08:48:32;;;;;;;8.17;4.83;;;;;3.00;100053.00;;;;10019018;29;20293;-84
2023/12/04 08:53:34;;;;;;;9.43;4.60;;;;;3.00;100043.00;;;;9996660;29;20251;-85
2023/12/04 08:58:39;;;;;;;8.37;4.87;;;;;3.00;100032.00;;;;10032017;29;20233;-88
2023/12/04 09:03:40;;;;;;;7.23;5.17;;;;;3.10;100034.00;;;;10027605;29;20226;-88
2023/12/04 09:08:42;;;;;;;8.43;5.00;;;;;3.10;100034.00;;;;10021804;29;20223;-90
2023/12/04 09:13:53;;;;;;;7.50;4.40;;;;;3.10;100041.00;;;;10024831;29;20217;-88
2023/12/04 09:18:55;;;;;;;6.73;4.73;;;;;3.20;100029.00;;;;10030161;29;20366;-88
2023/12/04 09:23:56;;;;;;;7.03;4.90;;;;;3.30;100025.00;;;;10120836;24;20642;-90
2023/12/04 09:28:57;;;;;;;6.70;5.10;;;;;3.30;100024.00;;;;10120062;29;20250;-88
2023/12/04 09:33:58;;;;;;;5.70;3.83;;;;;3.30;100025.00;;;;10105846;29;20232;-88
2023/12/04 09:39:00;;;;;;;5.47;4.20;;;;;3.40;100013.00;;;;10119146;29;20222;-89
2023/12/04 09:44:02;;;;;;;6.07;4.33;;;;;3.40;100015.00;;;;10076743;29;20259;-88
2023/12/04 09:49:04;;;;;;;5.97;5.30;;;;;3.40;100025.00;;;;10098343;29;20228;-89
2023/12/04 09:54:07;;;;;;;6.60;4.47;;;;;3.30;100024.00;;;;10117977;29;20231;-89
2023/12/04 09:59:25;;;;;;;9.43;5.77;;;;;3.30;100007.00;;;;10137118;23;20228;31
2023/12/04 10:04:26;;;;;;;7.10;5.13;;;;;3.20;100003.00;;;;10223202;23;20242;-89
2023/12/04 10:09:28;;;;;;;6.87;4.90;;;;;3.10;99994.00;;;;10343605;24;20579;-85
2023/12/04 10:14:30;;;;;;;7.33;5.40;;;;;3.00;99981.00;;;;10052242;29;20220;-84
2023/12/04 10:19:31;;;;;;;10.37;6.63;;;;;3.00;99966.00;;;;10040638;29;20322;-83
2023/12/04 10:24:35;;;;;;;8.47;5.97;;;;;2.90;99946.00;;;;10047448;29;20232;-83
2023/12/04 10:29:45;;;;;;;7.97;5.10;;;;;2.90;99910.00;;;;10051902;29;20229;-82
2023/12/04 10:34:47;;;;;;;10.00;6.27;;;;;3.10;99907.00;;;;10063755;29;20288;-83
2023/12/04 10:39:51;;;;;;;8.83;5.23;;;;;3.10;99890.00;;;;10030333;29;20695;-83
2023/12/04 10:44:57;;;;;;;8.00;5.53;;;;;3.20;99886.00;;;;10058148;29;20228;-82
2023/12/04 10:49:58;;;;;;;13.07;6.13;;;;;3.20;99862.00;;;;10045057;29;20605;-82
2023/12/04 10:55:00;;;;;;;8.83;6.40;;;;;3.10;99855.00;;;;10055462;29;20307;-82
2023/12/04 11:00:05;;;;;;;9.97;5.90;;;;;3.00;99826.00;;;;10038500;29;20243;-82
2023/12/04 11:05:13;;;;;;;9.10;6.27;;;;;3.00;99808.00;;;;10068319;29;20224;-82
2023/12/04 11:10:15;;;;;;;9.03;6.17;;;;;3.20;99784.00;;;;10049614;29;20231;-81
2023/12/04 11:15:21;;;;;;;8.77;7.00;;;;;3.50;99788.00;;;;10059663;29;20315;-82
2023/12/04 11:20:27;;;;;;;12.03;7.70;;;;;3.90;99770.00;;;;10054678;29;20239;-82
2023/12/04 11:25:29;;;;;;;11.43;6.67;;;;;4.30;99755.00;;;;10044118;29;20232;-82
2023/12/04 11:30:31;;;;;;;10.33;6.10;;;;;4.30;99758.00;;;;10050744;29;20746;-82
2023/12/04 11:35:33;;;;;;;10.30;7.00;;;;;4.00;99736.00;;;;10043087;29;20237;-81
2023/12/04 11:40:38;;;;;;;11.47;7.20;;;;;3.90;99736.00;;;;10036923;29;20241;-83
2023/12/04 11:45:40;;;;;;;10.93;7.47;;;;;3.70;99723.00;;;;10052894;29;20239;-82
2023/12/04 11:50:43;;;;;;;10.73;7.00;;;;;3.40;99706.00;;;;10038203;29;20315;-82
2023/12/04 11:55:45;;;;;;;8.83;6.27;;;;;3.20;99693.00;;;;10032901;29;20304;-82
2023/12/04 12:00:48;;;;;;;10.70;7.83;;;;;3.20;99680.00;;;;10048445;29;20715;-81
2023/12/04 12:05:50;;;;;;;11.10;7.13;;;;;3.10;99665.00;;;;10052024;29;20224;-83
2023/12/04 12:10:53;;;;;;;15.13;8.43;;;;;3.00;99650.00;;;;10069004;29;20240;-82
2023/12/04 12:15:54;;;;;;;13.10;7.43;;;;;2.90;99640.00;;;;10051135;29;20259;-81
2023/12/04 12:20:58;;;;;;;13.13;7.33;;;;;2.90;99627.00;;;;10054838;29;20228;-82
2023/12/04 12:26:01;;;;;;;13.70;8.33;;;;;2.90;99611.00;;;;10034664;29;20228;-81
2023/12/04 12:31:05;;;;;;;13.70;8.07;;;;;2.90;99610.00;;;;10043534;29;20231;-79
2023/12/04 12:36:07;;;;;;;12.10;7.67;;;;;2.90;99602.00;;;;10066057;29;20328;-79
2023/12/04 12:41:10;;;;;;;11.43;7.43;;;;;3.00;99599.00;;;;10040168;29;20228;-80
2023/12/04 12:46:12;;;;;;;12.83;8.30;;;;;3.00;99593.00;;;;10023505;29;20228;-78
2023/12/04 12:51:13;;;;;;;10.87;7.20;;;;;3.00;99592.00;;;;10026872;29;20236;-79
2023/12/04 12:56:14;;;;;;;14.17;8.00;;;;;2.90;99583.00;;;;10031820;29;20253;-79
2023/12/04 13:01:15;;;;;;;11.80;7.67;;;;;2.90;99578.00;;;;10023530;29;20642;-79
2023/12/04 13:06:17;;;;;;;11.33;8.07;;;;;2.90;99564.00;;;;10038666;29;20232;-79
2023/12/04 13:11:19;;;;;;;9.93;7.30;;;;;2.90;99556.00;;;;10049842;29;20250;-80
2023/12/04 13:16:20;;;;;;;9.57;7.00;;;;;2.90;99546.00;;;;10066894;29;20348;-80
2023/12/04 13:21:21;;;;;;;11.53;7.90;;;;;2.90;99533.00;;;;10037411;29;20232;-79
2023/12/04 13:26:23;;;;;;;10.60;7.23;;;;;2.90;99531.00;;;;10049300;29;20238;-78
2023/12/04 13:31:24;;;;;;;11.07;7.17;;;;;2.90;99522.00;;;;10069967;29;20933;-79
2023/12/04 13:36:28;;;;;;;11.60;7.33;;;;;3.00;99524.00;;;;10041966;29;20235;-80
2023/12/04 13:46:49;;;;;;;9.90;6.37;;;;;3.00;99498.00;;;;10062505;29;20221;-80
2023/12/04 13:51:50;;;;;;;9.27;5.70;;;;;3.10;99488.00;;;;10035960;29;20235;-80
2023/12/04 13:56:56;;;;;;;8.13;6.07;;;;;3.10;99486.00;;;;10066144;29;20224;-79
2023/12/04 14:02:00;;;;;;;7.60;5.50;;;;;3.10;99474.00;;;;10038319;29;20243;-80
2023/12/04 14:07:02;;;;;;;8.63;5.80;;;;;3.10;99474.00;;;;10054941;29;20228;-81
2023/12/04 14:12:08;;;;;;;8.73;6.43;;;;;3.20;99468.00;;;;10064370;29;20239;-80
2023/12/04 14:17:11;;;;;;;6.90;5.70;;;;;3.20;99458.00;;;;10060380;29;20280;-80
2023/12/04 14:22:12;;;;;;;6.17;4.50;;;;;3.30;99460.00;;;;10051548;29;20304;-80
2023/12/04 14:27:14;;;;;;;6.80;5.17;;;;;3.30;99450.00;;;;10038999;29;20871;-80
2023/12/04 14:32:15;;;;;;;5.50;4.37;;;;;3.30;99454.00;;;;10065544;29;20599;-80
2023/12/04 14:37:16;;;;;;;5.70;4.30;;;;;3.30;99441.00;;;;10060774;29;20228;-80
2023/12/04 14:42:18;;;;;;;7.00;5.13;;;;;3.30;99432.00;;;;10061630;29;20299;-81
2023/12/04 14:47:19;;;;;;;7.73;5.60;;;;;3.30;99433.00;;;;10046121;29;20231;-82
2023/12/04 14:52:22;;;;;;;9.23;6.13;;;;;3.30;99428.00;;;;10062786;29;20235;-82
2023/12/04 14:58:45;;;;;;;8.80;6.47;;;;;3.30;99414.00;;;;10054856;29;20701;-82
2023/12/04 15:18:37;;;;;;;9.10;6.90;;;;;3.50;99409.00;;;;10046693;29;20653;-81
2023/12/04 15:23:39;;;;;;;8.60;6.30;;;;;3.40;99396.00;;;;10043766;29;20228;-82
2023/12/04 15:28:41;;;;;;;10.63;6.03;;;;;3.40;99397.00;;;;10029850;29;20248;-84
2023/12/04 15:33:42;;;;;;;10.10;5.97;;;;;3.40;99396.00;;;;10045632;29;20247;-82
2023/12/04 15:38:44;;;;;;;7.90;6.20;;;;;3.40;99389.00;;;;10068085;29;20782;-80
2023/12/04 15:43:48;;;;;;;10.30;7.27;;;;;3.40;99388.00;;;;10051403;29;20318;-83
2023/12/04 15:48:49;;;;;;;9.40;7.20;;;;;3.40;99380.00;;;;10049816;29;20238;-81
2023/12/04 15:53:51;;;;;;;15.03;7.47;;;;;3.40;99375.00;;;;10049262;29;20227;-81
2023/12/04 15:58:52;;;;;;;8.50;7.47;;;;;3.40;99373.00;;;;10048159;29;20233;-82
2023/12/04 16:03:53;;;;;;;13.33;7.50;;;;;3.40;99370.00;;;;10031409;29;20239;-81
2023/12/04 16:08:56;;;;;;;10.23;7.63;;;;;3.50;99376.00;;;;10050171;29;20239;-80
2023/12/04 16:13:57;;;;;;;11.63;8.20;;;;;3.50;99368.00;;;;10033187;29;20875;-81
2023/12/04 16:18:59;;;;;;;10.03;7.33;;;;;3.50;99364.00;;;;10042176;29;20239;-81
2023/12/04 16:24:02;;;;;;;14.03;8.47;;;;;3.50;99355.00;;;;10034540;29;20255;-82
2023/12/04 16:29:04;;;;;;;12.07;9.27;;;;;3.50;99354.00;;;;10026991;29;20224;-82
2023/12/04 16:34:05;;;;;;;10.53;8.77;;;;;3.60;99347.00;;;;10046494;29;20360;-81
2023/12/04 16:39:06;;;;;;;12.87;8.97;;;;;3.60;99346.00;;;;10031938;29;20255;-80
2023/12/04 16:44:07;;;;;;;10.70;8.43;;;;;3.60;99342.00;;;;10048825;29;20231;-82
2023/12/04 16:49:09;;;;;;;9.40;8.07;;;;;3.60;99336.00;;;;10048934;29;20831;-82
2023/12/04 16:54:10;;;;;;;13.37;10.10;;;;;3.60;99328.00;;;;10067136;29;20299;-83
2023/12/04 16:59:12;;;;;;;10.63;8.83;;;;;3.70;99320.00;;;;10052561;29;20687;-81
2023/12/04 17:04:13;;;;;;;11.23;9.43;;;;;3.60;99319.00;;;;10063751;29;20411;-82
2023/12/04 17:09:15;;;;;;;11.80;9.00;;;;;3.60;99311.00;;;;10054023;29;20231;-80
2023/12/04 17:14:16;;;;;;;13.00;9.70;;;;;3.60;99311.00;;;;10054929;29;20671;-80
2023/12/04 17:19:18;;;;;;;10.80;9.23;;;;;3.60;99298.00;;;;10049778;29;20232;-80
2023/12/04 17:24:19;;;;;;;13.17;10.07;;;;;3.60;99294.00;;;;10033349;29;20231;-80
2023/12/04 17:29:21;;;;;;;11.67;10.23;;;;;3.60;99293.00;;;;10052252;29;20229;-80
2023/12/04 17:34:25;;;;;;;12.93;9.70;;;;;3.70;99296.00;;;;10067042;29;20232;-80
2023/12/04 17:39:27;;;;;;;14.03;9.93;;;;;3.70;99295.00;;;;10069185;29;20242;-80
2023/12/04 17:44:28;;;;;;;12.43;10.53;;;;;3.70;99289.00;;;;10052296;29;20311;-79
2023/12/04 17:49:33;;;;;;;12.53;9.73;;;;;3.70;99284.00;;;;10068242;29;20224;-79
2023/12/04 17:54:36;;;;;;;12.73;9.73;;;;;3.70;99276.00;;;;10051338;29;20224;-80
2023/12/04 17:59:38;;;;;;;14.80;11.03;;;;;3.70;99280.00;;;;10040969;29;20236;-80
2023/12/04 18:04:42;;;;;;;14.77;10.97;;;;;3.80;99268.00;;;;10051416;29;20255;-80
2023/12/04 18:09:43;;;;;;;13.27;10.90;;;;;3.80;99264.00;;;;10052142;29;20229;-79
2023/12/04 18:14:44;;;;;;;16.70;11.23;;;;;3.80;99264.00;;;;10065085;29;20220;-80
2023/12/04 18:25:52;;;;;;;12.10;10.03;;;;;3.80;99249.00;;;;12093656;23;20226;-86
2023/12/04 18:30:53;;;;;;;11.57;9.37;;;;;3.80;99239.00;;;;11343704;23;20207;-87
2023/12/04 18:35:55;;;;;;;14.50;10.03;;;;;3.90;99235.00;;;;10126434;29;20222;-87
2023/12/04 18:40:58;;;;;;;12.90;10.73;;;;;3.90;99224.00;;;;10256996;23;20219;-89
2023/12/04 18:46:00;;;;;;;14.03;11.57;;;;;3.90;99222.00;;;;10133773;29;20419;-87
2023/12/04 18:51:02;;;;;;;16.40;10.87;;;;;3.90;99219.00;;;;10325527;24;20304;-88
2023/12/04 18:56:10;;;;;;;13.50;10.87;;;;;4.00;99221.00;;;;10414387;23;20233;-88
2023/12/04 19:01:42;;;;;;;13.97;11.17;;;;;4.00;99212.00;;;;10938661;23;20243;31
2023/12/04 19:13:06;;;;;;;12.63;10.67;;;;;4.00;99197.00;;;;11475595;23;20254;31
2023/12/04 19:30:18;;;;;;;12.60;10.77;;;;;4.10;99191.00;;;;10202972;23;22271;-81
2023/12/04 19:35:20;;;;;;;16.20;11.57;;;;;4.10;99189.00;;;;10071972;29;20254;-80
2023/12/04 19:40:22;;;;;;;13.27;10.90;;;;;4.10;99192.00;;;;10069741;29;20330;-80
2023/12/04 19:45:23;;;;;;;12.33;10.17;;;;;4.20;99180.00;;;;10076007;29;20231;-81
2023/12/04 19:50:24;;;;;;;14.33;12.00;;;;;4.20;99184.00;;;;10071120;29;20220;-81
2023/12/04 19:55:25;;;;;;;16.10;11.50;;;;;4.30;99172.00;;;;10088459;29;20258;-80
2023/12/04 20:00:26;;;;;;;15.53;11.87;;;;;4.30;99175.00;;;;10057929;29;20331;-80
2023/12/04 20:05:29;;;;;;;17.37;11.53;;;;;4.30;99169.00;;;;10085105;29;20239;-80
2023/12/04 20:10:30;;;;;;;20.30;14.17;;;;;4.30;99170.00;;;;10084159;29;20230;-80
2023/12/04 20:15:32;;;;;;;20.27;13.70;;;;;4.30;99165.00;;;;10068937;29;20223;-80
2023/12/04 20:20:33;;;;;;;21.97;15.30;;;;;4.30;99163.00;;;;10076992;29;20346;-79
2023/12/04 20:25:34;;;;;;;17.20;13.97;;;;;4.30;99157.00;;;;10078548;29;20247;-80
2023/12/04 20:30:35;;;;;;;16.73;13.70;;;;;4.40;99152.00;;;;10090320;29;20235;-80
2023/12/04 20:35:37;;;;;;;17.93;14.70;;;;;4.30;99143.00;;;;10082708;29;20223;-79
2023/12/04 20:40:38;;;;;;;16.70;13.00;;;;;4.40;99155.00;;;;10082902;29;20235;-82
2023/12/04 20:45:40;;;;;;;20.30;14.37;;;;;4.40;99147.00;;;;10090718;29;20671;-80
2023/12/04 20:50:42;;;;;;;20.03;13.47;;;;;4.40;99147.00;;;;10077752;29;20231;-80
2023/12/04 20:55:45;;;;;;;17.43;12.93;;;;;4.50;99154.00;;;;10088021;29;20357;-81
2023/12/04 21:00:46;;;;;;;19.33;13.73;;;;;4.50;99152.00;;;;10083506;29;20305;-81
2023/12/04 21:05:48;;;;;;;18.40;14.03;;;;;4.60;99149.00;;;;10079094;29;20223;-80
2023/12/04 21:10:49;;;;;;;17.03;13.57;;;;;4.60;99148.00;;;;10083445;29;20231;-80
2023/12/04 21:15:51;;;;;;;16.77;12.70;;;;;4.60;99144.00;;;;10076475;29;20220;-81
2023/12/04 21:20:52;;;;;;;19.83;15.07;;;;;4.60;99139.00;;;;10099758;29;20241;-80
2023/12/04 21:25:54;;;;;;;18.60;15.40;;;;;4.60;99139.00;;;;10086815;29;20258;-80
2023/12/04 21:30:56;;;;;;;19.93;15.63;;;;;4.60;99142.00;;;;10055293;29;20231;-80
2023/12/04 21:35:58;;;;;;;22.90;15.73;;;;;4.60;99134.00;;;;10071092;29;20242;-82
2023/12/04 21:40:59;;;;;;;19.07;15.47;;;;;4.60;99123.00;;;;10092096;29;20263;-82
2023/12/04 21:46:01;;;;;;;19.67;14.43;;;;;4.60;99131.00;;;;10050485;29;20240;-80
2023/12/04 21:51:04;;;;;;;18.73;13.87;;;;;4.70;99129.00;;;;10073965;29;20215;-80
2023/12/04 21:56:05;;;;;;;21.20;15.80;;;;;4.70;99121.00;;;;10087689;29;20993;-80
2023/12/04 22:01:07;;;;;;;20.20;15.60;;;;;4.70;99120.00;;;;10085364;29;20237;-80
2023/12/04 22:06:09;;;;;;;22.27;15.43;;;;;4.70;99118.00;;;;10086563;29;20220;-80
2023/12/04 22:11:10;;;;;;;19.77;15.20;;;;;4.70;99123.00;;;;10073540;29;20312;-80
2023/12/04 22:16:11;;;;;;;21.87;14.93;;;;;4.70;99112.00;;;;10058645;29;20242;-79
2023/12/04 22:21:13;;;;;;;19.77;14.83;;;;;4.70;99107.00;;;;10070447;29;20586;-80
2023/12/04 22:26:14;;;;;;;20.60;14.70;;;;;4.70;99108.00;;;;10087667;29;20308;-79
2023/12/04 22:31:18;;;;;;;19.47;14.70;;;;;4.80;99110.00;;;;10071585;29;20234;-79
2023/12/04 22:36:19;;;;;;;20.93;14.60;;;;;4.80;99114.00;;;;10054935;29;20231;-79
2023/12/04 22:41:20;;;;;;;20.00;15.13;;;;;4.80;99104.00;;;;10073469;29;20297;-80
2023/12/04 22:46:21;;;;;;;19.43;14.37;;;;;4.80;99106.00;;;;10069023;29;20742;-80
2023/12/04 22:51:22;;;;;;;18.77;14.57;;;;;4.80;99099.00;;;;10103623;29;20315;-81
2023/12/04 22:56:24;;;;;;;17.90;13.87;;;;;4.80;99101.00;;;;10083295;29;20234;-80
2023/12/04 23:01:25;;;;;;;18.03;14.27;;;;;4.90;99096.00;;;;10052674;29;20231;-80
2023/12/04 23:06:27;;;;;;;20.37;14.33;;;;;4.80;99093.00;;;;10090037;29;20232;-78
2023/12/04 23:11:28;;;;;;;20.37;14.83;;;;;4.90;99099.00;;;;10068736;29;20706;-79
2023/12/04 23:16:29;;;;;;;21.87;14.53;;;;;4.90;99101.00;;;;10071600;29;20243;-79
2023/12/04 23:21:30;;;;;;;16.10;14.37;;;;;4.90;99102.00;;;;10054511;29;20331;-78
2023/12/04 23:26:32;;;;;;;18.17;13.57;;;;;4.90;99108.00;;;;10067536;29;20286;-80
2023/12/04 23:31:33;;;;;;;18.37;14.73;;;;;4.90;99106.00;;;;10065252;29;20308;-78
2023/12/04 23:36:34;;;;;;;20.30;16.03;;;;;4.90;99096.00;;;;10082384;29;20228;-78
2023/12/04 23:41:36;;;;;;;18.23;14.63;;;;;4.90;99095.00;;;;10084575;29;20235;-79
2023/12/04 23:46:39;;;;;;;17.03;13.70;;;;;5.00;99103.00;;;;10073154;29;20238;-78
2023/12/04 23:51:40;;;;;;;16.53;13.17;;;;;5.00;99094.00;;;;10070280;29;20223;-78
2023/12/04 23:56:41;;;;;;;16.30;13.47;;;;;5.00;99095.00;;;;10072480;29;20239;-80
